Roy, Louisiana
Current Conditions -  °F | °C
As of 2:35 AM on Friday 19 Dec 2014 (Local Time) from KMNE Reporting Station
Overcast Overcast  
Wind Chill: 46°   Ceiling: 700
Heat Index: 48°   Visibility: 10mi
Dew Point: 46°   Wind: 5mph
Humidity: 93%   Direction: 90°E
Pressure: 30.13"   Gusts: NA
Location:  32.2628°N, 93.0795°W
Report Text: KMNE 190835Z AUTO 09004KT 10SM OVC007 09/08 A3013 RMK AO2 LTG DSNT W
Loading
Personal Weather Stations






























Interactive Weather Map New forecast layout! Learn more

10-Day Weather Forecast

Advertisements
Track Severe Weather on mobile